createdAt,value
2022-11-01T05:12:58.899Z,94.25
2022-11-01T05:15:32.001Z,104.00
2022-11-01T05:18:04.994Z,99.75
2022-11-01T05:20:37.691Z,98.00
2022-11-01T05:23:10.682Z,103.00
2022-11-01T05:25:43.140Z,104.75
2022-11-01T05:28:18.153Z,114.75
2022-11-01T05:30:53.005Z,108.75
2022-11-01T05:33:31.127Z,103.67
2022-11-01T05:36:05.308Z,112.67
2022-11-01T05:38:41.654Z,111.33
2022-11-01T05:43:47.540Z,112.33
2022-11-01T05:46:20.407Z,112.33
2022-11-01T05:48:52.573Z,106.00
2022-11-01T05:51:25.120Z,99.75
2022-11-01T05:53:57.885Z,96.25
2022-11-01T05:56:30.569Z,92.75
2022-11-01T05:59:05.431Z,89.25
2022-11-01T06:01:38.149Z,92.00
2022-11-01T06:04:12.161Z,89.25
2022-11-01T06:06:45.186Z,84.50
2022-11-01T06:09:18.490Z,93.25
2022-11-01T06:11:51.055Z,91.75
2022-11-01T06:14:24.914Z,89.75
2022-11-01T06:16:57.373Z,98.50
2022-11-01T06:19:30.271Z,92.00
2022-11-01T06:22:03.107Z,93.75
2022-11-01T06:24:36.232Z,97.75
2022-11-01T06:27:11.624Z,98.00
2022-11-01T06:29:46.829Z,95.00
2022-11-01T06:32:18.750Z,84.75
2022-11-01T06:34:51.239Z,94.00
2022-11-01T06:37:23.763Z,92.25
2022-11-01T06:39:56.290Z,91.50
2022-11-01T06:42:28.682Z,93.75
2022-11-01T06:45:03.260Z,84.50
2022-11-01T06:47:35.645Z,93.50
2022-11-01T06:50:09.339Z,85.80
2022-11-01T06:52:41.469Z,89.60
2022-11-01T06:55:14.488Z,84.40
2022-11-01T06:57:47.154Z,89.20
2022-11-01T07:00:21.744Z,83.80
2022-11-01T07:03:02.855Z,84.00
2022-11-01T07:05:37.834Z,80.20
2022-11-01T07:08:13.100Z,82.80
2022-11-01T07:10:47.892Z,86.00
2022-11-01T07:13:20.594Z,88.20
2022-11-01T07:15:54.364Z,83.20
2022-11-01T07:18:27.347Z,82.20
2022-11-01T07:21:00.626Z,80.60
2022-11-01T07:23:33.260Z,81.80
2022-11-01T07:26:05.978Z,82.00
2022-11-01T07:28:39.311Z,79.80
2022-11-01T07:31:13.677Z,80.20
2022-11-01T07:33:45.874Z,73.60
2022-11-01T07:36:18.517Z,82.60
2022-11-01T07:38:51.090Z,82.40
2022-11-01T07:41:23.501Z,81.00
2022-11-01T07:43:57.015Z,76.40
2022-11-01T07:46:32.114Z,78.00
2022-11-01T07:49:04.966Z,67.20
2022-11-01T07:51:37.599Z,86.80
2022-11-01T07:54:10.578Z,82.00
2022-11-01T07:56:43.271Z,80.20
2022-11-01T07:59:15.989Z,77.00
2022-11-01T08:01:49.965Z,77.00
2022-11-01T08:04:22.820Z,74.40
2022-11-01T08:06:56.273Z,76.00
2022-11-01T08:09:29.006Z,82.60
2022-11-01T08:12:01.278Z,75.80
2022-11-01T08:14:33.716Z,70.80
2022-11-01T08:17:07.813Z,79.60
2022-11-01T08:19:40.908Z,79.00
2022-11-01T08:22:13.088Z,67.00
2022-11-01T08:24:45.746Z,83.20
2022-11-01T08:27:18.606Z,68.20
2022-11-01T08:29:50.879Z,63.20
2022-11-01T08:32:26.328Z,77.80
2022-11-01T08:34:58.413Z,84.80
2022-11-01T08:37:31.322Z,74.20
2022-11-01T08:40:03.637Z,78.60
2022-11-01T08:42:35.768Z,80.00
2022-11-01T08:45:09.017Z,76.40
2022-11-01T08:47:42.821Z,77.20
2022-11-01T08:50:17.024Z,80.00
2022-11-01T08:52:49.209Z,77.60
2022-11-01T08:55:21.710Z,73.80
2022-11-01T08:57:54.593Z,73.80
2022-11-01T09:00:27.015Z,75.20
2022-11-01T09:03:03.980Z,73.40
2022-11-01T09:05:37.082Z,72.60
2022-11-01T09:08:10.114Z,75.00
2022-11-01T09:10:45.711Z,76.00
2022-11-01T09:13:19.167Z,72.00
2022-11-01T09:15:51.680Z,63.60
2022-11-01T09:18:25.946Z,63.80
2022-11-01T09:20:58.676Z,73.40
2022-11-01T09:23:31.757Z,70.20
2022-11-01T09:26:07.282Z,74.00
2022-11-01T09:28:41.008Z,59.00
2022-11-01T09:31:20.813Z,68.40
2022-11-01T09:33:59.192Z,69.40
2022-11-01T09:36:32.579Z,63.80
2022-11-01T09:39:05.029Z,68.00
2022-11-01T09:41:44.230Z,66.20
2022-11-01T09:44:21.169Z,59.80
2022-11-01T09:47:01.331Z,64.00
2022-11-01T09:49:39.956Z,64.80
2022-11-01T09:52:19.630Z,63.80
2022-11-01T09:54:52.122Z,69.80
2022-11-01T09:57:31.284Z,69.00
2022-11-01T10:00:09.487Z,63.40
2022-11-01T10:03:05.948Z,63.40
2022-11-01T10:05:58.146Z,66.20
2022-11-01T10:08:44.950Z,64.00
2022-11-01T10:11:36.864Z,61.60
2022-11-01T10:14:16.741Z,53.60
2022-11-01T10:16:56.309Z,61.20
2022-11-01T10:19:32.112Z,62.00
2022-11-01T10:22:13.224Z,66.40
2022-11-01T10:24:51.698Z,61.20
2022-11-01T10:27:34.611Z,63.00
2022-11-01T10:30:16.055Z,67.00
2022-11-01T10:32:54.246Z,60.00
2022-11-01T10:35:31.460Z,54.20
2022-11-01T10:38:25.000Z,61.20
2022-11-01T10:41:09.866Z,60.00
2022-11-01T10:43:47.015Z,65.80
2022-11-01T10:46:23.066Z,59.00
2022-11-01T10:48:59.053Z,55.20
2022-11-01T10:51:35.118Z,63.60
2022-11-01T10:54:17.751Z,65.40
2022-11-01T10:56:54.400Z,64.80
2022-11-01T10:59:32.508Z,62.00
2022-11-01T11:02:07.560Z,60.80
2022-11-01T11:04:41.056Z,54.60
2022-11-01T11:07:19.941Z,62.60
2022-11-01T11:09:57.930Z,59.60
2022-11-01T11:12:32.315Z,60.20
2022-11-01T11:15:09.590Z,62.00
2022-11-01T11:17:46.488Z,55.00
2022-11-01T11:20:25.416Z,60.20
2022-11-01T11:22:57.965Z,57.20
2022-11-01T11:25:39.736Z,62.00
2022-11-01T11:28:27.318Z,57.80
2022-11-01T11:30:59.658Z,55.40
2022-11-01T11:33:33.089Z,56.00
2022-11-01T11:36:06.765Z,59.60
2022-11-01T11:38:47.402Z,58.00
2022-11-01T11:41:33.289Z,58.60
2022-11-01T11:44:05.474Z,55.40
2022-11-01T11:46:38.273Z,57.00
2022-11-01T11:49:30.643Z,56.80
2022-11-01T11:52:04.056Z,58.00
2022-11-01T11:54:39.779Z,56.20
2022-11-01T11:57:18.955Z,61.40
2022-11-01T11:59:56.928Z,58.80
2022-11-01T12:02:33.330Z,60.00
2022-11-01T12:05:10.958Z,62.20
2022-11-01T12:07:51.281Z,64.00
2022-11-01T12:10:36.509Z,61.80
2022-11-01T12:13:29.676Z,59.20
2022-11-01T12:19:01.373Z,62.20
2022-11-01T12:21:38.225Z,64.60
2022-11-01T12:24:20.538Z,45.80
2022-11-01T12:26:55.454Z,68.80
2022-11-01T12:29:35.502Z,66.60
2022-11-01T12:32:14.651Z,67.40
2022-11-01T12:34:49.765Z,68.40
2022-11-01T12:37:25.874Z,70.20
2022-11-01T12:40:04.196Z,67.80
2022-11-01T12:42:43.987Z,71.40
2022-11-01T12:45:26.176Z,68.80
2022-11-01T12:48:03.561Z,71.20
2022-11-01T12:50:47.380Z,74.00
2022-11-01T12:53:24.133Z,73.20
2022-11-01T12:55:56.777Z,70.00
2022-11-01T12:58:33.735Z,69.00
2022-11-01T13:01:25.968Z,71.20
2022-11-01T13:04:10.180Z,67.80
2022-11-01T13:07:24.855Z,64.00
2022-11-01T13:10:06.918Z,79.80
2022-11-01T13:12:49.770Z,76.80
2022-11-01T13:15:28.385Z,87.00
2022-11-01T13:18:13.171Z,78.60
2022-11-01T13:20:57.385Z,82.00
2022-11-01T13:23:36.951Z,84.00
2022-11-01T13:26:18.572Z,84.40
2022-11-01T13:29:06.067Z,82.20
2022-11-01T13:31:50.211Z,87.60
2022-11-01T13:34:40.824Z,87.00
2022-11-01T13:37:24.103Z,82.60
2022-11-01T13:40:11.460Z,82.60
2022-11-01T13:42:49.356Z,87.40
2022-11-01T13:45:46.449Z,88.20
2022-11-01T13:48:29.742Z,87.20
2022-11-01T13:51:29.142Z,93.75
2022-11-01T13:54:08.079Z,95.50
2022-11-01T13:56:46.336Z,104.75
2022-11-01T13:59:33.180Z,106.50
2022-11-01T14:02:40.950Z,104.75
2022-11-01T14:05:14.518Z,109.00
2022-11-01T14:08:15.449Z,102.00
2022-11-01T14:10:54.577Z,100.50
2022-11-01T14:13:42.674Z,95.00
2022-11-01T14:16:25.236Z,106.75
2022-11-01T14:19:22.907Z,92.00
2022-11-01T14:21:57.259Z,89.25
2022-11-01T14:24:35.692Z,96.75
2022-11-01T14:27:24.701Z,102.50
2022-11-01T14:29:57.599Z,104.00
2022-11-01T14:32:33.124Z,103.75
2022-11-01T14:35:24.696Z,108.25
2022-11-01T14:37:59.972Z,102.25
2022-11-01T14:40:37.852Z,109.00
2022-11-01T14:43:18.240Z,105.00
2022-11-01T14:45:56.307Z,107.00
2022-11-01T14:48:35.201Z,119.00
2022-11-01T14:51:12.787Z,108.33
2022-11-01T14:53:47.221Z,113.67
2022-11-01T14:56:24.365Z,117.67
2022-11-01T14:59:16.287Z,125.25
2022-11-01T15:01:51.728Z,119.75
2022-11-01T15:04:26.055Z,119.75
2022-11-01T15:07:00.624Z,123.00
2022-11-01T15:09:35.362Z,122.75
2022-11-01T15:12:13.147Z,128.50
2022-11-01T15:14:48.628Z,126.75
2022-11-01T15:17:26.241Z,140.50
2022-11-01T15:20:00.082Z,130.50
2022-11-01T15:22:34.967Z,134.75
2022-11-01T15:25:09.217Z,132.75
2022-11-01T15:27:45.711Z,131.75
2022-11-01T15:30:24.759Z,134.00
2022-11-01T15:33:16.174Z,134.00
2022-11-01T15:35:57.726Z,140.00
2022-11-01T15:38:31.160Z,122.00
2022-11-01T15:41:22.085Z,147.50
2022-11-01T15:44:01.190Z,147.50
2022-11-01T15:46:36.828Z,144.75
2022-11-01T15:49:12.874Z,142.00
2022-11-01T15:51:51.089Z,139.25
2022-11-01T15:54:37.472Z,144.00
2022-11-01T15:57:19.701Z,148.00
2022-11-01T16:00:01.702Z,144.50
2022-11-01T16:02:49.395Z,150.50
2022-11-01T16:05:25.342Z,151.25
2022-11-01T16:07:58.901Z,150.00
2022-11-01T16:10:32.873Z,149.25
2022-11-01T16:13:08.869Z,144.50
2022-11-01T16:15:42.933Z,148.25
2022-11-01T16:18:20.463Z,145.00
2022-11-01T16:20:54.079Z,161.00
2022-11-01T16:23:31.148Z,149.75
2022-11-01T16:26:09.172Z,147.75
2022-11-01T16:28:44.785Z,136.50
2022-11-01T16:31:27.486Z,133.25
2022-11-01T16:34:01.115Z,154.75
2022-11-01T16:36:43.045Z,157.00
2022-11-01T16:39:31.355Z,158.25
2022-11-01T16:42:04.347Z,157.50
2022-11-01T16:44:36.702Z,156.50
2022-11-01T16:47:10.732Z,156.75
2022-11-01T16:49:49.875Z,153.67
2022-11-01T16:52:23.580Z,157.00
2022-11-01T16:54:56.527Z,163.00
2022-11-01T16:57:30.551Z,162.00
2022-11-01T17:00:03.117Z,171.00
2022-11-01T17:02:37.783Z,152.50
2022-11-01T17:05:22.698Z,161.75
2022-11-01T17:07:55.339Z,159.00
2022-11-01T17:10:29.103Z,154.50
2022-11-01T17:13:05.088Z,156.50
2022-11-01T17:15:42.193Z,145.75
2022-11-01T17:18:22.063Z,160.50
2022-11-01T17:20:57.955Z,155.00
2022-11-01T17:23:31.431Z,143.50
2022-11-01T17:26:05.024Z,155.25
2022-11-01T17:28:37.975Z,145.00
2022-11-01T17:31:10.402Z,144.75
2022-11-01T17:33:44.483Z,154.25
2022-11-01T17:36:19.448Z,147.25
2022-11-01T17:38:51.910Z,147.00
2022-11-01T17:41:23.950Z,142.25
2022-11-01T17:43:57.011Z,145.00
2022-11-01T17:46:30.081Z,152.50
2022-11-01T17:49:04.499Z,140.75
2022-11-01T17:51:36.914Z,138.75
2022-11-01T17:54:09.364Z,137.00
2022-11-01T17:56:41.290Z,147.00
2022-11-01T17:59:13.708Z,138.50
2022-11-01T18:01:46.611Z,138.50
2022-11-01T18:04:21.036Z,147.75
2022-11-01T18:06:53.735Z,129.00
2022-11-01T18:09:27.819Z,128.00
2022-11-01T18:12:08.721Z,137.25
2022-11-01T18:14:55.190Z,136.75
2022-11-01T18:17:53.893Z,139.25
2022-11-01T18:20:42.295Z,137.25
2022-11-01T18:23:17.483Z,135.00
2022-11-01T18:25:52.204Z,130.25
2022-11-01T18:28:27.900Z,130.00
2022-11-01T18:31:01.778Z,129.00
2022-11-01T18:33:40.940Z,134.50
2022-11-01T18:36:20.588Z,125.00
2022-11-01T18:39:02.916Z,127.50
2022-11-01T18:41:34.999Z,130.00
2022-11-01T18:44:14.373Z,139.75
2022-11-01T18:46:54.977Z,133.50
2022-11-01T18:49:30.280Z,135.50
2022-11-01T18:52:04.165Z,135.00
2022-11-01T18:54:37.067Z,136.75
2022-11-01T18:57:15.905Z,138.25
2022-11-01T18:59:51.546Z,140.00
2022-11-01T19:02:28.538Z,134.50
2022-11-01T19:05:14.799Z,133.25
2022-11-01T19:08:11.118Z,127.25
2022-11-01T19:10:44.751Z,128.00
2022-11-01T19:13:24.037Z,138.50
2022-11-01T19:15:59.644Z,130.25
2022-11-01T19:18:33.850Z,129.00
2022-11-01T19:21:06.878Z,122.00
2022-11-01T19:23:42.182Z,125.75
2022-11-01T19:26:23.759Z,117.75
2022-11-01T19:28:56.674Z,124.00
2022-11-01T19:31:32.727Z,122.25
2022-11-01T19:34:08.890Z,115.25
2022-11-01T19:36:43.692Z,122.75
2022-11-01T19:39:25.786Z,119.25
2022-11-01T19:42:02.376Z,111.50
2022-11-01T19:44:35.288Z,113.75
2022-11-01T19:47:33.300Z,113.25
2022-11-01T19:50:05.689Z,107.67
2022-11-01T19:52:44.580Z,119.33
2022-11-01T19:55:48.317Z,115.67
2022-11-01T19:58:29.348Z,105.50
2022-11-01T20:01:31.636Z,104.75
2022-11-01T20:04:05.798Z,113.00
2022-11-01T20:06:42.470Z,104.67
2022-11-01T20:09:19.988Z,109.67
2022-11-01T20:11:54.704Z,108.00
2022-11-01T20:14:27.306Z,109.00
2022-11-01T20:17:00.253Z,103.75
2022-11-01T20:19:33.737Z,107.75
2022-11-01T20:22:06.046Z,102.75
2022-11-01T20:24:39.166Z,101.00
2022-11-01T20:27:12.752Z,107.00
2022-11-01T20:29:45.001Z,104.00
2022-11-01T20:32:17.065Z,95.75
2022-11-01T20:34:49.517Z,110.00
2022-11-01T20:37:28.564Z,98.75
2022-11-01T20:40:01.360Z,108.50
2022-11-01T20:42:35.447Z,100.75
2022-11-01T20:45:08.639Z,103.25
2022-11-01T20:47:46.118Z,109.50
2022-11-01T20:50:20.448Z,94.50
2022-11-01T20:52:52.550Z,100.75
2022-11-01T20:55:25.168Z,92.75
2022-11-01T20:57:58.846Z,102.00
2022-11-01T21:00:31.480Z,100.00
2022-11-01T21:03:08.020Z,93.25
2022-11-01T21:05:40.170Z,105.50
2022-11-01T21:08:20.200Z,80.00
2022-11-01T21:11:01.070Z,99.00
2022-11-01T21:13:38.257Z,90.00
2022-11-01T21:16:20.174Z,92.25
2022-11-01T21:18:54.256Z,89.25
2022-11-01T21:21:46.577Z,96.75
2022-11-01T21:24:37.486Z,93.00
2022-11-01T21:30:17.579Z,97.00
2022-11-01T21:32:50.588Z,88.25
2022-11-01T21:35:42.405Z,87.75
2022-11-01T21:38:39.214Z,89.00
2022-11-01T21:41:36.707Z,89.60
2022-11-01T21:44:27.263Z,87.25
2022-11-01T21:47:13.491Z,85.80
2022-11-01T21:49:46.185Z,92.40
2022-11-01T21:52:18.814Z,82.60
2022-11-01T21:54:51.923Z,86.25
2022-11-01T21:57:24.483Z,73.80
2022-11-01T21:59:57.574Z,86.40
2022-11-01T22:02:31.563Z,84.40
2022-11-01T22:05:04.495Z,85.75
2022-11-01T22:07:36.754Z,84.20
2022-11-01T22:10:10.136Z,79.60
2022-11-01T22:12:42.627Z,91.25
2022-11-01T22:15:15.721Z,87.25
2022-11-01T22:17:49.547Z,81.50
2022-11-01T22:20:22.099Z,88.50
2022-11-01T22:22:54.245Z,86.75
2022-11-01T22:25:26.725Z,83.20
2022-11-01T22:27:59.407Z,87.60
2022-11-01T22:30:31.623Z,83.40
2022-11-01T22:33:07.352Z,77.80
2022-11-01T22:35:39.942Z,83.60
2022-11-01T22:38:19.793Z,82.40
2022-11-01T22:43:32.134Z,81.00
2022-11-01T22:46:05.936Z,89.75
2022-11-01T22:48:40.053Z,84.20
2022-11-01T22:51:20.145Z,79.60
2022-11-01T22:53:54.580Z,88.80
2022-11-01T22:56:27.204Z,83.00
2022-11-01T22:58:59.923Z,80.40
2022-11-01T23:01:34.620Z,87.00
2022-11-01T23:04:22.993Z,69.80
2022-11-01T23:06:55.457Z,87.80
2022-11-01T23:09:28.002Z,81.60
2022-11-01T23:12:38.354Z,82.40
2022-11-01T23:15:22.195Z,75.80
2022-11-01T23:17:54.932Z,70.80
2022-11-01T23:20:28.678Z,80.00
2022-11-01T23:23:02.717Z,71.60
2022-11-01T23:25:35.320Z,78.00
2022-11-01T23:28:08.127Z,78.60
2022-11-01T23:30:40.699Z,77.40
2022-11-01T23:33:16.099Z,77.20
2022-11-01T23:35:55.879Z,79.80
2022-11-01T23:38:36.416Z,78.00
2022-11-01T23:41:09.271Z,74.40
2022-11-01T23:43:43.956Z,64.20
2022-11-01T23:46:16.736Z,77.80
2022-11-01T23:48:49.873Z,70.00
2022-11-01T23:51:24.763Z,69.60
2022-11-01T23:54:01.509Z,73.00
2022-11-01T23:56:34.712Z,75.40
2022-11-01T23:59:08.433Z,75.60
